Oxelosund, Sweden
Current Conditions -  °F | °C
As of 10:50 AM on Friday 28 Nov 2014 (Local Time) from ESKN Reporting Station
Few Clouds Few Clouds  
Wind Chill: 31°   Ceiling: Unl
Heat Index: 37°   Visibility: 6mi
Dew Point: 37°   Wind: 8mph
Humidity: 100%   Direction: 140°SE
Pressure: 30.45"   Gusts: NA
Location:  58.67°N, 17.1°E
Report Text: ESKN 280950Z 14007KT 9999 FEW026 03/03 Q1031 R26/290195
Loading
Personal Weather Stations






























Interactive Weather Map New forecast layout! Learn more

10-Day Weather Forecast

Advertisements
Track Severe Weather on mobile